This is the latest recevied weather packets stored in our database for station/object DM5AO-10. If no packets are shown the sender has not sent any weather packets the latest 10 day(s).
| Time | Temp. | Humidity | Pressure | Rain* | Wind** | Luminosity | Snow |
|---|---|---|---|---|---|---|---|
| 1787577826 | 25° C | 48% | 1023.5 hPa | - | - | - | - |
| 1787576925 | 23.33° C | 50% | 1023.7 hPa | - | - | - | - |
| 1787576024 | 22.78° C | 51% | 1023.8 hPa | - | - | - | - |
| 1787575123 | 22.22° C | 53% | 1023.8 hPa | - | - | - | - |
| 1787574222 | 22.22° C | 55% | 1023.9 hPa | - | - | - | - |
| 1787573322 | 22.78° C | 53% | 1023.8 hPa | - | - | - | - |
| 1787572421 | 21.11° C | 57% | 1023.8 hPa | - | - | - | - |
| 1787571520 | 21.11° C | 56% | 1023.9 hPa | - | - | - | - |
| 1787570619 | 21.11° C | 56% | 1023.9 hPa | - | - | - | - |
| 1787569718 | 21.11° C | 56% | 1023.8 hPa | - | - | - | - |
| 1787568817 | 21.11° C | 57% | 1023.7 hPa | - | - | - | - |
| 1787567917 | 21.67° C | 55% | 1023.7 hPa | - | - | - | - |
| 1787567016 | 21.11° C | 57% | 1023.9 hPa | - | - | - | - |
| 1787566115 | 21.11° C | 58% | 1023.9 hPa | - | - | - | - |
| 1787565214 | 21.11° C | 58% | 1023.9 hPa | - | - | - | - |
| 1787564313 | 20.56° C | 59% | 1024 hPa | - | - | - | - |
| 1787563412 | 19.44° C | 62% | 1024 hPa | - | - | - | - |
| 1787562512 | 19.44° C | 62% | 1023.9 hPa | - | - | - | - |
| 1787561611 | 19.44° C | 62% | 1024 hPa | - | - | - | - |
| 1787560709 | 19.44° C | 63% | 1024 hPa | - | - | - | - |
| 1787559808 | 18.89° C | 64% | 1023.8 hPa | - | - | - | - |
| 1787558907 | 18.89° C | 64% | 1023.8 hPa | - | - | - | - |
| 1787558006 | 17.78° C | 66% | 1023.8 hPa | - | - | - | - |
| 1787557106 | 17.78° C | 65% | 1023.6 hPa | - | - | - | - |
| 1787556205 | 17.22° C | 65% | 1023.6 hPa | - | - | - | - |
* Rain since midnight (hover to see other rain measurements)
** Current wind speed in m/s (hover to see current wind gust speed)